Latest Weather Observations for Lockhart River

IDQ60801

Issued at 3:12 am EST Friday 2 October 2020 (issued every 10 minutes, with the page automatically refreshed every 10 minutes)

About weather observations | Map of weather stations | Latest weather observations for QLD | Other Formats
Station Details ID: 028008 Name: LOCKHART RIVER AIRPORT Lat: -12.79 Lon: 143.30 Height: 18.5 m
Data from the previous 72 hours. | See also: Recent months at Lockhart River
Date/Time
EST
Temp
°C
App
Temp
°C
Dew
Point
°C
Rel
Hum
%
Delta-T
°C
Wind Press
QNH
hPa
Press
MSL
hPa
Rain since
9am
mm
Dir  Spd
km/h
Gust
km/h
Spd
kts
Gust
kts
02/03:00am 24.2 22.6 18.4 70 3.7 SE 24 33 13 18 1013.4 1013.3 0.0
02/02:30am 24.6 22.8 18.8 70 3.7 SE 26 32 14 17 1013.5 1013.4 0.0
02/02:00am 24.7 22.6 18.9 70 3.7 SE 28 39 15 21 1013.8 1013.7 0.0
02/01:30am 24.5 22.9 18.4 69 3.9 SE 24 35 13 19 1014.1 1014.0 0.0
02/01:00am 24.8 23.2 19.2 71 3.6 SE 26 39 14 21 1014.4 1014.3 0.0
02/12:30am 24.8 21.8 18.7 69 3.9 SE 32 44 17 24 1014.5 1014.4 0.0
02/12:00am 24.8 23.2 19.2 71 3.6 SE 26 35 14 19 1014.7 1014.6 0.0
 
Date/Time
EST
Temp
°C
App
Temp
°C
Dew
Point
°C
Rel
Hum
%
Delta-T
°C
Wind Press
QNH
hPa
Press
MSL
hPa
Rain since
9am
mm
Dir  Spd
km/h
Gust
km/h
Spd
kts
Gust
kts
01/11:30pm 24.7 23.3 18.9 70 3.7 SE 24 37 13 20 1015.1 1015.0 0.0
01/11:00pm 24.9 22.9 19.1 70 3.7 ESE 28 39 15 21 1015.3 1015.2 0.0
01/10:30pm 25.0 23.5 19.4 71 3.6 SE 26 39 14 21 1015.2 1015.1 0.0
01/10:05pm 25.1 22.7 19.2 70 3.8 SE 30 48 16 26 1015.2 1015.1 0.0
01/10:00pm 25.2 23.8 19.6 71 3.6 SE 26 39 14 21 1015.3 1015.2 0.0
01/09:51pm 25.1 23.1 19.2 70 3.8 SE 28 46 15 25 1015.2 1015.1 0.0
01/09:30pm 25.2 23.4 19.6 71 3.6 SE 28 41 15 22 1015.1 1015.0 0.0
01/09:00pm 25.3 23.8 19.4 70 3.8 SE 26 39 14 21 1014.8 1014.7 0.0
01/08:30pm 25.2 24.4 20.0 73 3.4 SE 24 32 13 17 1014.6 1014.5 0.0
01/08:00pm 25.3 25.1 19.7 71 3.6 SE 20 30 11 16 1014.4 1014.3 0.0
01/07:30pm 25.4 24.8 19.8 71 3.6 SE 22 30 12 16 1014.1 1014.0 0.0
01/07:00pm 25.5 24.8 19.4 69 3.9 SE 22 35 12 19 1013.6 1013.5 0.0
01/06:30pm 25.8 24.7 19.4 67 4.1 SE 24 32 13 17 1013.4 1013.3 0.0
01/06:00pm 26.1 24.4 19.0 65 4.6 SE 26 41 14 22 1013.1 1013.0 0.0
01/05:30pm 26.7 25.1 19.3 64 4.8 SE 26 41 14 22 1012.8 1012.7 0.0
01/05:00pm 27.1 24.5 18.7 60 5.4 SE 30 43 16 23 1012.3 1012.2 0.0
01/04:30pm 27.3 24.2 18.3 58 5.7 ESE 32 46 17 25 1012.0 1011.9 0.0
01/04:00pm 28.3 25.2 18.4 55 6.3 SE 32 46 17 25 1012.0 1011.9 0.0
01/03:30pm 28.0 24.5 18.7 57 6.0 SE 35 44 19 24 1012.1 1012.0 0.0
01/03:00pm 28.9 26.0 18.9 54 6.5 ESE 32 44 17 24 1012.4 1012.3 0.0
01/02:30pm 28.9 26.2 19.2 55 6.3 SE 32 41 17 22 1012.8 1012.7 0.0
01/02:00pm 28.7 25.8 18.8 55 6.4 SE 32 43 17 23 1013.1 1013.0 0.0
01/01:30pm 29.1 27.5 19.1 54 6.5 ESE 26 43 14 23 1013.4 1013.3 0.0
01/01:00pm 28.1 24.9 18.2 55 6.3 ESE 32 44 17 24 1013.6 1013.5 0.0
01/12:30pm 28.9 25.8 18.9 54 6.5 SE 33 46 18 25 1014.2 1014.1 0.0
01/12:00pm 29.7 27.1 19.4 54 6.7 SE 32 46 17 25 1014.6 1014.5 0.0
01/11:49am 28.8 26.6 18.6 54 6.6 ESE 28 50 15 27 1014.7 1014.6 0.0
01/11:30am 28.1 25.4 19.6 60 5.5 ESE 33 46 18 25 1014.9 1014.8 0.0
01/11:00am 27.3 24.9 19.1 61 5.3 ESE 30 46 16 25 1015.1 1015.0 0.0
01/10:30am 28.2 25.3 18.9 57 6.0 ESE 32 46 17 25 1015.2 1015.1 0.0
01/10:00am 27.4 25.8 19.2 61 5.3 ESE 26 37 14 20 1015.4 1015.3 0.0
01/09:40am 27.2 24.9 19.3 62 5.1 ESE 30 48 16 26 1015.5 1015.5 0.0
01/09:30am 26.9 24.0 19.3 63 4.9 SE 33 48 18 26 1015.5 1015.5 0.0
01/09:04am 26.5 24.4 18.9 63 4.9 ESE 28 48 15 26 1015.4 1015.4 0.0
01/09:00am 26.4 24.7 19.0 63 4.7 ESE 26 37 14 20 1015.3 1015.3 0.0
01/08:30am 26.4 24.7 19.0 63 4.7 ESE 26 39 14 21 1015.0 1015.0 0.0
01/08:00am 25.9 23.9 18.3 63 4.8 SE 26 37 14 20 1014.4 1014.3 0.0
01/07:30am 26.0 23.8 17.9 61 5.1 ESE 26 39 14 21 1014.0 1013.9 0.0
01/07:00am 25.2 23.0 17.9 64 4.6 ESE 26 35 14 19 1013.5 1013.4 0.0
01/06:30am 24.7 23.0 18.2 67 4.1 SE 24 33 13 18 1013.2 1013.1 0.0
01/06:00am 24.5 23.8 18.7 70 3.7 ESE 20 28 11 15 1013.0 1012.9 0.0
01/05:30am 24.5 22.9 18.4 69 3.9 SE 24 33 13 18 1012.7 1012.6 0.0
01/05:00am 24.6 23.4 18.5 69 3.9 SE 22 32 12 17 1012.4 1012.3 0.0
01/04:30am 24.8 23.8 19.6 73 3.3 SE 24 39 13 21 1012.1 1012.0 0.0
01/04:00am 24.8 24.0 19.2 71 3.6 SE 22 32 12 17 1011.9 1011.8 0.0
01/03:30am 24.6 22.7 18.5 69 3.9 ESE 26 43 14 23 1011.8 1011.7 0.0
01/03:00am 24.6 23.6 18.8 70 3.7 SE 22 30 12 16 1012.0 1011.9 0.0
01/02:30am 24.4 23.4 18.8 71 3.6 SE 22 32 12 17 1012.2 1012.1 0.0
01/02:00am 24.6 23.6 18.8 70 3.7 SE 22 32 12 17 1012.5 1012.4 0.0
01/01:30am 24.5 23.2 18.2 68 4.0 SE 22 32 12 17 1012.8 1012.7 0.0
01/01:00am 24.7 22.7 18.2 67 4.1 SE 26 35 14 19 1013.1 1013.0 0.0
01/12:30am 24.6 23.0 18.3 68 4.0 SE 24 32 13 17 1013.5 1013.4 0.0
01/12:00am 24.8 23.0 18.7 69 3.9 SE 26 35 14 19 1013.8 1013.7 0.0
 
Date/Time
EST
Temp
°C
App
Temp
°C
Dew
Point
°C
Rel
Hum
%
Delta-T
°C
Wind Press
QNH
hPa
Press
MSL
hPa
Rain since
9am
mm
Dir  Spd
km/h
Gust
km/h
Spd
kts
Gust
kts
30/11:30pm 24.8 22.6 18.7 69 3.9 SE 28 39 15 21 1014.2 1014.1 0.0
30/11:00pm 25.0 23.7 19.1 70 3.8 SE 24 37 13 20 1014.4 1014.3 0.0
30/10:30pm 25.2 24.4 20.0 73 3.4 SE 24 35 13 19 1014.3 1014.2 0.0
30/10:00pm 25.1 23.7 19.7 72 3.5 SE 26 35 14 19 1014.2 1014.1 0.0
30/09:30pm 25.2 24.5 19.6 71 3.6 SE 22 33 12 18 1014.0 1013.9 0.0
30/09:00pm 25.2 24.8 19.3 70 3.8 ESE 20 33 11 18 1013.7 1013.6 0.0
30/08:30pm 25.4 24.5 19.8 71 3.6 ESE 24 37 13 20 1013.3 1013.2 0.0
30/08:00pm 25.3 24.9 19.4 70 3.8 SE 20 32 11 17 1013.0 1012.9 0.0
30/07:30pm 25.4 25.1 19.5 70 3.8 ESE 20 32 11 17 1012.6 1012.5 0.0
30/07:00pm 25.4 25.1 19.5 70 3.8 SE 20 32 11 17 1012.2 1012.1 0.0
30/06:30pm 25.6 25.3 19.5 69 3.9 ESE 20 32 11 17 1011.8 1011.7 0.0
30/06:00pm 25.8 24.4 18.7 65 4.5 ESE 24 33 13 18 1011.3 1011.2 0.0
30/05:30pm 26.2 25.3 18.1 61 5.1 ESE 20 32 11 17 1011.0 1010.9 0.0
30/05:00pm 26.3 24.5 17.9 60 5.3 ESE 24 39 13 21 1010.6 1010.5 0.0
30/04:30pm 27.4 25.6 17.8 55 6.1 ESE 24 37 13 20 1010.5 1010.4 0.0
30/04:00pm 27.8 24.9 18.8 58 5.8 SE 32 43 17 23 1010.7 1010.6 0.0
30/03:30pm 28.0 24.8 18.7 57 6.0 SE 33 46 18 25 1010.8 1010.7 0.0
30/03:07pm 28.6 26.0 18.7 55 6.4 SE 30 48 16 26 1011.0 1010.9 0.0
30/03:00pm 29.0 26.0 18.7 53 6.6 ESE 32 46 17 25 1011.0 1010.9 0.0
30/02:30pm 28.4 25.7 19.3 57 5.9 SE 32 43 17 23 1011.4 1011.3 0.0
30/02:02pm 28.7 26.3 19.1 56 6.2 SE 30 48 16 26 1011.6 1011.5 0.0
30/02:00pm 28.3 25.9 19.2 57 5.9 SE 30 46 16 25 1011.7 1011.6 0.0
30/01:55pm 27.8 25.8 19.1 59 5.6 ESE 28 46 15 25 1011.8 1011.7 0.0
30/01:30pm 28.1 25.6 18.8 57 6.0 ESE 30 43 16 23 1012.2 1012.1 0.0
30/01:00pm 27.7 24.3 17.8 54 6.3 ESE 32 43 17 23 1012.8 1012.7 0.0
30/12:30pm 28.0 24.2 17.2 52 6.8 ESE 33 46 18 25 1013.1 1013.0 0.0
30/12:08pm 28.8 25.2 17.3 49 7.3 SE 32 50 17 27 1013.5 1013.4 0.0
30/12:00pm 28.9 25.1 17.1 49 7.4 ESE 33 46 18 25 1013.7 1013.6 0.0
30/11:31am 28.6 25.8 17.2 50 7.2 ESE 28 46 15 25 1014.1 1014.0 0.0
30/11:30am 28.5 25.6 17.1 50 7.2 ESE 28 39 15 21 1014.2 1014.1 0.0
30/11:10am 28.1 24.7 16.7 50 7.1 ESE 30 48 16 26 1014.4 1014.3 0.0
30/11:00am 28.0 23.4 17.2 52 6.8 SE 37 50 20 27 1014.5 1014.4 0.0
30/10:34am 28.6 24.4 16.2 47 7.7 SE 33 52 18 28 1014.7 1014.6 0.0
30/10:30am 27.7 23.5 16.3 49 7.1 ESE 33 50 18 27 1014.7 1014.6 0.0
30/10:14am 27.0 23.2 17.2 55 6.1 SE 33 54 18 29 1014.9 1014.8 0.0
30/10:00am 27.5 24.0 17.9 55 6.1 ESE 33 50 18 27 1014.9 1014.8 0.0
30/09:30am 27.0 23.3 17.5 56 6.0 SE 33 52 18 28 1015.0 1015.0 0.0
30/09:00am 27.2 23.0 17.1 54 6.3 SE 35 56 19 30 1015.1 1015.1 0.0
30/08:30am 26.8 23.6 17.3 56 5.9 ESE 30 52 16 28 1014.6 1014.5 0.0
30/08:03am 26.6 23.0 17.7 58 5.6 ESE 33 52 18 28 1014.3 1014.2 0.0
30/08:00am 26.3 22.1 17.1 57 5.7 ESE 35 52 19 28 1014.2 1014.1 0.0
30/07:38am 26.0 23.1 17.1 58 5.5 SE 28 46 15 25 1014.0 1013.9 0.0
30/07:30am 25.8 22.5 16.9 58 5.5 ESE 30 43 16 23 1013.9 1013.8 0.0
30/07:00am 25.3 21.8 18.7 67 4.2 SE 35 50 19 27 1013.4 1013.3 0.0
30/06:51am 25.0 22.4 18.7 68 4.0 SE 30 48 16 26 1013.2 1013.1 0.0
30/06:30am 24.7 23.1 18.4 68 4.0 ESE 24 46 13 25 1012.8 1012.7 0.0
30/06:00am 24.5 21.6 18.0 67 4.1 SE 30 41 16 22 1012.5 1012.4 0.0
30/05:30am 24.7 22.6 18.9 70 3.7 SE 28 37 15 20 1012.1 1012.0 0.0
30/05:00am 24.7 23.0 18.9 70 3.7 SE 26 43 14 23 1012.0 1011.9 0.0
30/04:30am 24.7 22.9 17.9 66 4.3 ESE 24 35 13 19 1011.9 1011.8 0.0
30/04:00am 24.7 23.1 18.4 68 4.0 ESE 24 37 13 20 1011.7 1011.6 0.0
30/03:30am 24.6 22.6 18.3 68 4.0 SE 26 39 14 21 1011.8 1011.7 0.0
30/03:00am 24.4 22.7 18.1 68 4.0 ESE 24 39 13 21 1012.0 1011.9 0.0
30/02:30am 24.7 22.1 18.6 69 3.9 ESE 30 43 16 23 1012.3 1012.2 0.0
30/02:00am 24.7 22.7 19.1 71 3.6 SE 28 41 15 22 1012.7 1012.6 0.0
30/01:30am 25.0 23.5 19.4 71 3.6 SE 26 41 14 22 1013.3 1013.2 0.0
30/01:00am 25.0 24.4 18.9 69 3.9 ESE 20 32 11 17 1013.8 1013.7 0.0
30/12:30am 25.1 22.9 18.8 68 4.0 SE 28 39 15 21 1014.1 1014.0 0.0
30/12:00am 25.1 22.9 18.8 68 4.0 SE 28 43 15 23 1014.5 1014.4 0.0
 
Date/Time
EST
Temp
°C
App
Temp
°C
Dew
Point
°C
Rel
Hum
%
Delta-T
°C
Wind Press
QNH
hPa
Press
MSL
hPa
Rain since
9am
mm
Dir  Spd
km/h
Gust
km/h
Spd
kts
Gust
kts
29/11:30pm 25.3 22.1 18.7 67 4.2 SE 33 46 18 25 1014.7 1014.6 0.0
29/11:00pm 25.3 23.4 19.4 70 3.8 SE 28 41 15 22 1015.0 1015.0 0.0
29/10:30pm 25.2 23.8 18.9 68 4.0 SE 24 39 13 21 1014.9 1014.8 0.0
29/10:00pm 25.3 23.1 18.7 67 4.2 SE 28 48 15 26 1014.8 1014.7 0.0
29/09:57pm 25.3 22.7 18.7 67 4.2 SE 30 48 16 26 1014.8 1014.7 0.0
29/09:30pm 25.4 23.8 19.1 68 4.0 ESE 26 41 14 22 1014.5 1014.4 0.0
29/09:00pm 25.6 23.2 19.0 67 4.2 SE 30 43 16 23 1014.2 1014.1 0.0
29/08:30pm 25.7 23.5 19.6 69 3.9 SE 30 43 16 23 1013.9 1013.8 0.0
29/08:00pm 25.5 23.0 18.9 67 4.2 ESE 30 46 16 25 1013.6 1013.5 0.0
29/07:47pm 25.5 23.4 18.9 67 4.2 SE 28 46 15 25 1013.4 1013.3 0.0
29/07:30pm 25.5 23.2 19.4 69 3.9 SE 30 43 16 23 1013.2 1013.1 0.0
29/07:00pm 25.8 24.5 19.9 70 3.8 SE 26 44 14 24 1012.9 1012.8 0.0
29/06:30pm 25.9 23.6 19.3 67 4.2 SE 30 44 16 24 1012.5 1012.4 0.0
29/06:00pm 26.1 23.2 18.8 64 4.7 ESE 32 46 17 25 1012.2 1012.1 0.0
29/05:30pm 26.5 24.6 19.4 65 4.6 ESE 28 39 15 21 1012.0 1011.9 0.0
29/05:00pm 27.8 26.1 19.8 61 5.2 ESE 28 41 15 22 1011.6 1011.5 0.0
29/04:35pm 27.1 25.4 19.7 64 4.8 ESE 28 46 15 25 1011.6 1011.5 0.0
29/04:30pm 26.9 24.6 19.3 63 4.9 ESE 30 46 16 25 1011.6 1011.5 0.0
29/04:17pm 27.9 26.0 19.4 60 5.5 ESE 28 46 15 25 1011.5 1011.4 0.0
29/04:00pm 28.0 25.2 19.0 58 5.8 ESE 32 43 17 23 1011.5 1011.4 0.0
29/03:30pm 28.8 27.6 20.0 59 5.8 ESE 26 41 14 22 1011.8 1011.7 0.0
29/03:00pm 28.5 25.4 18.3 54 6.5 ESE 32 48 17 26 1011.9 1011.8 0.0
29/02:40pm 27.5 25.2 20.1 64 4.8 SE 32 50 17 27 1012.2 1012.1 0.0
29/02:30pm 28.3 25.8 19.8 60 5.5 ESE 32 48 17 26 1012.3 1012.2 0.0
29/02:07pm 29.4 27.0 20.0 57 6.2 ESE 32 50 17 27 1012.6 1012.5 0.0
29/02:00pm 28.3 24.3 18.4 55 6.3 ESE 37 50 20 27 1012.7 1012.6 0.0
29/01:30pm 28.1 24.7 19.1 58 5.8 ESE 35 50 19 27 1013.0 1012.9 0.0
29/01:00pm 28.6 25.4 19.5 58 5.9 SE 35 52 19 28 1013.5 1013.4 0.0
29/12:47pm 29.6 25.9 19.9 56 6.4 SE 39 54 21 29 1013.7 1013.6 0.0
29/12:39pm 28.5 25.1 18.9 56 6.2 SE 35 54 19 29 1013.9 1013.8 0.0
29/12:30pm 28.6 26.0 19.5 58 5.9 ESE 32 46 17 25 1014.0 1013.9 0.0
29/12:00pm 29.6 27.1 20.2 57 6.2 ESE 33 52 18 28 1014.3 1014.2 0.0
29/11:54am 29.1 26.7 20.3 59 5.8 ESE 33 52 18 28 1014.4 1014.3 0.0
29/11:53am 28.8 26.1 20.5 61 5.5 ESE 35 52 19 28 1014.4 1014.3 0.0
29/11:30am 30.2 28.0 20.4 55 6.5 ESE 32 54 17 29 1014.6 1014.5 0.0
29/11:19am 29.9 27.2 20.5 57 6.2 ESE 35 56 19 30 1014.7 1014.6 0.0
29/11:06am 29.5 26.6 20.1 57 6.2 ESE 35 54 19 29 1014.8 1014.7 0.0
29/11:01am 30.1 27.7 20.4 56 6.4 ESE 33 43 18 23 1014.9 1014.8 0.0
29/11:00am 30.2 28.0 20.7 56 6.3 ESE 33 43 18 23 1014.9 1014.8 0.0
29/10:32am 29.4 28.0 20.5 58 5.9 ESE 28 46 15 25 1015.2 1015.2 0.0
29/10:30am 29.1 27.3 20.3 59 5.8 ESE 30 46 16 25 1015.2 1015.2 0.0
29/10:20am 28.4 26.0 19.9 60 5.6 ESE 32 50 17 27 1015.2 1015.2 0.0
29/10:00am 28.2 24.9 20.0 61 5.4 ESE 37 54 20 29 1015.3 1015.3 0.0
29/09:31am 27.7 25.3 20.3 64 4.9 ESE 33 56 18 30 1015.3 1015.3 0.0
29/09:30am 27.6 25.3 20.2 64 4.8 ESE 32 46 17 25 1015.3 1015.3 0.0
29/09:03am 27.1 24.7 20.0 65 4.6 ESE 32 50 17 27 1015.2 1015.2 0.0
29/09:00am 27.0 24.7 20.1 66 4.5 ESE 32 43 17 23 1015.3 1015.3 0.0
29/08:30am 26.8 25.4 20.4 68 4.2 ESE 28 46 15 25 1015.0 1015.0 0.0
29/08:26am 26.4 24.9 20.3 69 4.0 ESE 28 46 15 25 1015.0 1015.0 0.0
29/08:00am 26.8 26.2 20.6 69 4.1 ESE 24 37 13 20 1014.6 1014.5 0.0
29/07:30am 25.8 25.2 20.6 73 3.4 ESE 24 35 13 19 1014.3 1014.2 0.0
29/07:00am 25.4 25.2 20.6 75 3.1 SE 22 30 12 16 1013.9 1013.8 0.0
29/06:30am 25.2 25.2 20.9 77 2.8 SE 22 30 12 16 1013.5 1013.4 0.0
29/06:00am 25.0 24.4 20.5 76 2.9 ESE 24 32 13 17 1013.1 1013.0 0.0
29/05:30am 24.5 24.0 20.8 80 2.4 ESE 24 41 13 22 1012.9 1012.8 0.0
29/05:00am 25.1 24.9 20.6 76 2.9 ESE 22 37 12 20 1012.7 1012.6 0.0
29/04:30am 25.4 24.5 20.6 75 3.1 SE 26 39 14 21 1012.6 1012.5 0.0
29/04:00am 25.3 24.6 20.3 74 3.3 SE 24 35 13 19 1012.6 1012.5 0.0
29/03:30am 25.4 24.4 20.4 74 3.3 SE 26 41 14 22 1012.7 1012.6 0.0

Other formats

Comma delimited format used in spreadsheet applications
http://www.bom.gov.au/fwo/IDQ60801/IDQ60801.94186.axf

JavaScript Object Notation format (JSON) in row-major order
http://www.bom.gov.au/fwo/IDQ60801/IDQ60801.94186.json

Data quality

Most of these data are generated automatically and are frequently updated. Quality checks on data are not normally performed. It is possible for incorrect values to appear. Refer to information at About Latest Weather Observations and please check the disclaimer before using these data.